Fall City, Washington
Current Conditions -  °F | °C
As of 3:53 AM on Thursday 29 Jan 2015 (Local Time) from KRNT Reporting Station
Scattered Clouds Scattered Clouds  
Wind Chill: 41°   Ceiling: Unl
Heat Index: 41°   Visibility: 10mi
Dew Point: 40°   Wind: 0mph
Humidity: 96%   Direction: NA
Pressure: 30.36"   Gusts: NA
Location:  47.57°N, 121.89°W
Report Text: KRNT 291153Z AUTO 00000KT 10SM SCT100 05/04 A3036 RMK AO2 SLP286 T00500044 10067 20044 57001
Loading
Personal Weather Stations






























Interactive Weather Map New forecast layout! Learn more

10-Day Weather Forecast

Advertisements
Track Severe Weather on mobile